createdAt,value
2023-04-26T00:00:16.072Z,22.10
2023-04-26T00:01:16.120Z,22.10
2023-04-26T00:02:16.264Z,22.10
2023-04-26T00:03:16.356Z,22.09
2023-04-26T00:04:16.648Z,22.09
2023-04-26T00:05:16.395Z,22.09
2023-04-26T00:06:16.390Z,22.09
2023-04-26T00:07:16.431Z,22.09
2023-04-26T00:08:16.502Z,22.09
2023-04-26T00:09:16.570Z,22.09
2023-04-26T00:10:16.597Z,22.09
2023-04-26T00:11:16.634Z,22.09
2023-04-26T00:12:16.683Z,22.09
2023-04-26T00:13:16.729Z,22.09
2023-04-26T00:14:16.743Z,22.09
2023-04-26T00:15:16.817Z,22.08
2023-04-26T00:16:16.930Z,22.08
2023-04-26T00:17:16.927Z,22.09
2023-04-26T00:18:16.974Z,22.08
2023-04-26T00:19:17.004Z,22.08
2023-04-26T00:20:17.097Z,22.07
2023-04-26T00:21:17.164Z,22.07
2023-04-26T00:22:17.117Z,22.08
2023-04-26T00:23:17.150Z,22.08
2023-04-26T00:24:17.199Z,22.07
2023-04-26T00:25:17.259Z,22.07
2023-04-26T00:26:17.287Z,22.07
2023-04-26T00:27:17.342Z,22.06
2023-04-26T00:28:17.378Z,22.06
2023-04-26T00:29:17.428Z,22.06
2023-04-26T00:30:17.480Z,22.06
2023-04-26T00:31:17.603Z,22.06
2023-04-26T00:32:17.552Z,22.06
2023-04-26T00:33:17.626Z,22.06
2023-04-26T00:34:17.651Z,22.06
2023-04-26T00:35:17.695Z,22.06
2023-04-26T00:36:17.743Z,22.06
2023-04-26T00:37:17.781Z,22.06
2023-04-26T00:38:17.826Z,22.07
2023-04-26T00:39:17.862Z,22.06
2023-04-26T00:40:17.899Z,22.06
2023-04-26T00:41:17.898Z,22.05
2023-04-26T00:42:17.930Z,22.06
2023-04-26T00:43:17.992Z,22.06
2023-04-26T00:44:18.011Z,22.06
2023-04-26T00:45:17.993Z,22.06
2023-04-26T00:46:18.076Z,22.06
2023-04-26T00:47:18.033Z,22.06
2023-04-26T00:48:18.061Z,22.05
2023-04-26T00:49:18.063Z,22.06
2023-04-26T00:50:18.078Z,22.05
2023-04-26T00:51:18.106Z,22.05
2023-04-26T00:52:18.143Z,22.04
2023-04-26T00:53:18.169Z,22.04
2023-04-26T00:54:18.206Z,22.05
2023-04-26T00:55:18.243Z,22.05
2023-04-26T00:56:18.259Z,22.04
2023-04-26T00:57:18.299Z,22.03
2023-04-26T00:58:18.348Z,22.04
2023-04-26T00:59:18.371Z,22.03
2023-04-26T01:00:18.393Z,22.04
2023-04-26T01:01:18.447Z,22.03
2023-04-26T01:02:18.521Z,22.03
2023-04-26T01:03:18.625Z,22.03
2023-04-26T01:04:18.758Z,22.02
2023-04-26T01:05:18.542Z,22.03
2023-04-26T01:06:18.573Z,22.03
2023-04-26T01:07:18.593Z,22.03
2023-04-26T01:08:18.629Z,22.03
2023-04-26T01:09:18.637Z,22.02
2023-04-26T01:10:18.680Z,22.03
2023-04-26T01:11:18.683Z,22.02
2023-04-26T01:12:18.692Z,22.02
2023-04-26T01:13:18.708Z,22.02
2023-04-26T01:14:18.726Z,22.03
2023-04-26T01:15:18.724Z,22.03
2023-04-26T01:16:18.715Z,22.02
2023-04-26T01:17:18.703Z,22.03
2023-04-26T01:18:18.722Z,22.02
2023-04-26T01:19:18.754Z,22.02
2023-04-26T01:20:18.800Z,22.03
2023-04-26T01:21:18.819Z,22.02
2023-04-26T01:22:18.844Z,22.02
2023-04-26T01:23:18.872Z,22.02
2023-04-26T01:24:18.889Z,22.02
2023-04-26T01:25:18.929Z,22.02
2023-04-26T01:26:18.969Z,22.02
2023-04-26T01:27:19.007Z,22.02
2023-04-26T01:28:18.995Z,22.02
2023-04-26T01:29:19.007Z,22.01
2023-04-26T01:30:19.002Z,22.02
2023-04-26T01:31:19.060Z,22.01
2023-04-26T01:32:19.027Z,22.01
2023-04-26T01:33:19.028Z,22.01
2023-04-26T01:34:19.070Z,22.00
2023-04-26T01:35:19.085Z,22.01
2023-04-26T01:36:19.105Z,22.01
2023-04-26T01:37:19.100Z,22.01
2023-04-26T01:38:19.118Z,22.01
2023-04-26T01:39:19.108Z,22.01
2023-04-26T01:40:19.120Z,22.00
2023-04-26T01:41:19.132Z,22.00
2023-04-26T01:42:19.160Z,22.01
2023-04-26T01:43:19.184Z,22.00
2023-04-26T01:44:19.214Z,21.99
2023-04-26T01:45:19.240Z,22.00
2023-04-26T01:46:19.272Z,22.00
2023-04-26T01:47:19.244Z,22.00
2023-04-26T01:48:19.249Z,21.99
2023-04-26T01:49:19.274Z,22.00
2023-04-26T01:50:19.271Z,22.00
2023-04-26T01:51:19.300Z,21.99
2023-04-26T01:52:19.334Z,22.00
2023-04-26T01:53:19.336Z,22.00
2023-04-26T01:54:19.343Z,21.99
2023-04-26T01:55:19.329Z,21.99
2023-04-26T01:56:19.353Z,21.99
2023-04-26T01:57:19.360Z,21.99
2023-04-26T01:58:19.378Z,21.99
2023-04-26T01:59:19.413Z,21.99
2023-04-26T02:00:19.439Z,21.99
2023-04-26T02:01:19.508Z,21.98
2023-04-26T02:02:19.495Z,21.99
2023-04-26T02:03:19.567Z,21.98
2023-04-26T02:04:19.502Z,21.99
2023-04-26T02:05:19.647Z,21.98
2023-04-26T02:06:19.562Z,21.98
2023-04-26T02:07:19.567Z,21.99
2023-04-26T02:08:19.578Z,21.98
2023-04-26T02:09:19.608Z,21.98
2023-04-26T02:10:19.597Z,21.98
2023-04-26T02:11:19.637Z,21.98
2023-04-26T02:12:19.627Z,21.98
2023-04-26T02:13:19.647Z,21.98
2023-04-26T02:14:19.650Z,21.97
2023-04-26T02:15:19.660Z,21.97
2023-04-26T02:16:20.104Z,21.98
2023-04-26T02:17:19.658Z,21.97
2023-04-26T02:18:19.663Z,21.97
2023-04-26T02:19:19.778Z,21.97
2023-04-26T02:20:19.704Z,21.96
2023-04-26T02:21:19.706Z,21.97
2023-04-26T02:22:19.702Z,21.97
2023-04-26T02:23:19.715Z,21.97
2023-04-26T02:24:19.724Z,21.97
2023-04-26T02:25:19.731Z,21.96
2023-04-26T02:26:19.733Z,21.97
2023-04-26T02:27:19.725Z,21.97
2023-04-26T02:28:19.718Z,21.96
2023-04-26T02:29:26.612Z,21.96
2023-04-26T02:30:20.719Z,21.96
2023-04-26T02:32:19.716Z,21.96
2023-04-26T02:33:19.721Z,21.96
2023-04-26T02:34:19.727Z,21.95
2023-04-26T02:35:19.718Z,21.95
2023-04-26T02:36:19.727Z,21.95
2023-04-26T02:37:19.712Z,21.96
2023-04-26T02:38:19.708Z,21.95
2023-04-26T02:39:19.706Z,21.95
2023-04-26T02:40:19.709Z,21.95
2023-04-26T02:41:19.704Z,21.94
2023-04-26T02:42:19.703Z,21.94
2023-04-26T02:43:19.691Z,21.94
2023-04-26T02:44:19.694Z,21.94
2023-04-26T02:45:19.713Z,21.94
2023-04-26T02:46:19.741Z,21.95
2023-04-26T02:47:19.693Z,21.94
2023-04-26T02:48:19.704Z,21.94
2023-04-26T02:49:19.694Z,21.94
2023-04-26T02:50:19.696Z,21.94
2023-04-26T02:51:19.695Z,21.94
2023-04-26T02:52:19.689Z,21.94
2023-04-26T02:53:19.686Z,21.93
2023-04-26T02:54:19.687Z,21.93
2023-04-26T02:55:19.688Z,21.94
2023-04-26T02:56:19.691Z,21.93
2023-04-26T02:57:19.696Z,21.94
2023-04-26T02:58:19.689Z,21.93
2023-04-26T02:59:19.688Z,21.93
2023-04-26T03:00:19.690Z,21.94
2023-04-26T03:01:19.730Z,21.93
2023-04-26T03:02:19.812Z,21.95
2023-04-26T03:03:19.821Z,21.95
2023-04-26T03:04:19.780Z,21.95
2023-04-26T03:05:19.671Z,21.96
2023-04-26T03:06:19.668Z,21.96
2023-04-26T03:07:19.667Z,21.96
2023-04-26T03:08:19.671Z,21.97
2023-04-26T03:09:19.674Z,21.97
2023-04-26T03:10:19.666Z,21.98
2023-04-26T03:11:19.666Z,21.98
2023-04-26T03:12:19.670Z,21.99
2023-04-26T03:13:19.660Z,22.00
2023-04-26T03:14:19.669Z,22.00
2023-04-26T03:15:19.655Z,22.00
2023-04-26T03:16:19.691Z,22.01
2023-04-26T03:17:19.656Z,22.01
2023-04-26T03:18:19.636Z,22.02
2023-04-26T03:19:19.648Z,22.03
2023-04-26T03:20:19.620Z,22.03
2023-04-26T03:21:19.618Z,22.03
2023-04-26T03:22:19.602Z,22.04
2023-04-26T03:23:19.591Z,22.04
2023-04-26T03:24:19.586Z,22.05
2023-04-26T03:25:19.589Z,22.05
2023-04-26T03:26:19.576Z,22.06
2023-04-26T03:27:19.580Z,22.06
2023-04-26T03:28:19.617Z,22.05
2023-04-26T03:29:19.659Z,22.06
2023-04-26T03:30:19.707Z,22.07
2023-04-26T03:31:19.754Z,22.07
2023-04-26T03:32:19.715Z,22.07
2023-04-26T03:33:19.749Z,22.07
2023-04-26T03:34:19.795Z,22.07
2023-04-26T03:35:19.826Z,22.07
2023-04-26T03:36:19.862Z,22.07
2023-04-26T03:37:19.910Z,22.08
2023-04-26T03:38:19.957Z,22.08
2023-04-26T03:39:20.011Z,22.08
2023-04-26T03:40:20.036Z,22.08
2023-04-26T03:41:20.051Z,22.08
2023-04-26T03:42:20.076Z,22.09
2023-04-26T03:43:20.123Z,22.09
2023-04-26T03:44:20.139Z,22.09
2023-04-26T03:45:20.156Z,22.09
2023-04-26T03:46:20.260Z,22.10
2023-04-26T03:47:20.182Z,22.10
2023-04-26T03:48:20.192Z,22.10
2023-04-26T03:49:20.227Z,22.09
2023-04-26T03:50:20.263Z,22.10
2023-04-26T03:51:20.322Z,22.10
2023-04-26T03:52:20.357Z,22.10
2023-04-26T03:53:20.402Z,22.11
2023-04-26T03:54:20.480Z,22.10
2023-04-26T03:55:20.487Z,22.10
2023-04-26T03:56:20.482Z,22.11
2023-04-26T03:57:20.508Z,22.11
2023-04-26T03:58:20.538Z,22.11
2023-04-26T03:59:20.588Z,22.11
2023-04-26T04:00:20.642Z,22.11
2023-04-26T04:01:20.679Z,22.11
2023-04-26T04:02:20.795Z,22.12
2023-04-26T04:03:21.095Z,22.11
2023-04-26T04:04:21.099Z,22.11
2023-04-26T04:05:20.858Z,22.12
2023-04-26T04:06:20.890Z,22.12
2023-04-26T04:07:20.943Z,22.12
2023-04-26T04:08:20.985Z,22.13
2023-04-26T04:09:21.057Z,22.12
2023-04-26T04:10:21.053Z,22.13
2023-04-26T04:11:21.120Z,22.13
2023-04-26T04:12:21.148Z,22.12
2023-04-26T04:13:21.199Z,22.12
2023-04-26T04:14:21.265Z,22.13
2023-04-26T04:15:21.340Z,22.14
2023-04-26T04:16:21.713Z,22.13
2023-04-26T04:17:21.469Z,22.14
2023-04-26T04:18:21.534Z,22.13
2023-04-26T04:19:21.584Z,22.14
2023-04-26T04:20:21.649Z,22.13
2023-04-26T04:21:21.704Z,22.13
2023-04-26T04:22:21.774Z,22.14
2023-04-26T04:23:21.861Z,22.13
2023-04-26T04:24:21.941Z,22.13
2023-04-26T04:25:21.977Z,22.14
2023-04-26T04:26:22.020Z,22.14
2023-04-26T04:27:22.158Z,22.14
2023-04-26T04:28:22.109Z,22.15
2023-04-26T04:29:22.172Z,22.14
2023-04-26T04:30:22.210Z,22.15
2023-04-26T04:31:22.343Z,22.14
2023-04-26T04:32:22.373Z,22.14
2023-04-26T04:33:22.419Z,22.14
2023-04-26T04:34:22.450Z,22.14
2023-04-26T04:35:22.488Z,22.15
2023-04-26T04:36:22.558Z,22.15
2023-04-26T04:37:22.617Z,22.15
2023-04-26T04:38:22.679Z,22.15
2023-04-26T04:39:22.747Z,22.14
2023-04-26T04:40:22.804Z,22.14
2023-04-26T04:41:22.845Z,22.14
2023-04-26T04:42:22.902Z,22.14
2023-04-26T04:43:23.010Z,22.14
2023-04-26T04:44:23.009Z,22.14
2023-04-26T04:45:23.049Z,22.14
2023-04-26T04:46:23.146Z,22.14
2023-04-26T04:47:23.191Z,22.15
2023-04-26T04:48:23.562Z,22.14
2023-04-26T04:49:23.292Z,22.14
2023-04-26T04:50:23.362Z,22.14
2023-04-26T04:51:23.391Z,22.15
2023-04-26T04:52:23.452Z,22.15
2023-04-26T04:53:23.458Z,22.14
2023-04-26T04:54:23.486Z,22.15
2023-04-26T04:55:23.543Z,22.14
2023-04-26T04:56:23.583Z,22.15
2023-04-26T04:57:23.641Z,22.15
2023-04-26T04:58:23.694Z,22.15
2023-04-26T04:59:23.728Z,22.15
2023-04-26T05:00:23.731Z,22.14
2023-04-26T05:01:23.771Z,22.15
2023-04-26T05:02:23.857Z,22.14
2023-04-26T05:03:23.935Z,22.15
2023-04-26T05:04:24.083Z,22.14
2023-04-26T05:05:23.861Z,22.15
2023-04-26T05:06:23.890Z,22.15
2023-04-26T05:07:24.639Z,22.15
2023-04-26T05:08:24.014Z,22.15
2023-04-26T05:09:24.063Z,22.15
2023-04-26T05:10:24.123Z,22.16
2023-04-26T05:11:24.178Z,22.15
2023-04-26T05:12:24.256Z,22.15
2023-04-26T05:13:24.307Z,22.15
2023-04-26T05:14:24.383Z,22.15
2023-04-26T05:15:24.431Z,22.16
2023-04-26T05:16:24.496Z,22.16
2023-04-26T05:17:24.591Z,22.16
2023-04-26T05:18:24.549Z,22.16
2023-04-26T05:19:24.594Z,22.16
2023-04-26T05:20:24.668Z,22.15
2023-04-26T05:21:24.717Z,22.16
2023-04-26T05:22:25.714Z,22.16
2023-04-26T05:23:24.709Z,22.17
2023-04-26T05:24:24.696Z,22.17
2023-04-26T05:25:24.692Z,22.19
2023-04-26T05:26:24.686Z,22.18
2023-04-26T05:27:24.686Z,22.20
2023-04-26T05:28:24.690Z,22.19
2023-04-26T05:29:24.689Z,22.19
2023-04-26T05:30:24.723Z,22.19
2023-04-26T05:31:24.816Z,22.17
2023-04-26T05:32:24.850Z,22.17
2023-04-26T05:33:24.905Z,22.18
2023-04-26T05:34:24.971Z,22.18
2023-04-26T05:35:25.039Z,22.18
2023-04-26T05:36:25.400Z,22.18
2023-04-26T05:37:25.150Z,22.18
2023-04-26T05:38:25.187Z,22.17
2023-04-26T05:39:25.220Z,22.17
2023-04-26T05:40:25.214Z,22.16
2023-04-26T05:41:25.207Z,22.16
2023-04-26T05:42:25.214Z,22.16
2023-04-26T05:43:25.206Z,22.15
2023-04-26T05:44:25.201Z,22.15
2023-04-26T05:45:25.255Z,22.15
2023-04-26T05:46:25.244Z,22.14
2023-04-26T05:47:25.188Z,22.15
2023-04-26T05:48:25.195Z,22.18
2023-04-26T05:49:25.189Z,22.21
2023-04-26T05:50:25.276Z,22.24
2023-04-26T05:51:25.319Z,22.28
2023-04-26T05:52:25.389Z,22.32
2023-04-26T05:53:25.489Z,22.36
2023-04-26T05:54:25.518Z,22.38
2023-04-26T05:55:25.611Z,22.42
2023-04-26T05:56:25.634Z,22.44
2023-04-26T05:57:25.749Z,22.47
2023-04-26T05:58:25.735Z,22.48
2023-04-26T05:59:25.754Z,22.50
2023-04-26T06:00:25.800Z,22.51
2023-04-26T06:01:25.869Z,22.52
2023-04-26T06:02:26.096Z,22.54
2023-04-26T06:03:26.160Z,22.55
2023-04-26T06:04:26.163Z,22.56
2023-04-26T06:05:26.177Z,22.57
2023-04-26T06:06:26.118Z,22.57
2023-04-26T06:07:26.169Z,22.58
2023-04-26T06:08:26.218Z,22.59
2023-04-26T06:09:26.268Z,22.57
2023-04-26T06:10:26.329Z,22.54
2023-04-26T06:11:26.385Z,22.52
2023-04-26T06:12:26.434Z,22.52
2023-04-26T06:13:26.499Z,22.51
2023-04-26T06:14:30.396Z,22.50
2023-04-26T06:15:26.557Z,22.51
2023-04-26T06:16:26.568Z,22.52
2023-04-26T06:17:26.556Z,22.52
2023-04-26T06:18:26.519Z,22.52
2023-04-26T06:19:26.508Z,22.53
2023-04-26T06:20:26.506Z,22.53
2023-04-26T06:21:26.520Z,22.55
2023-04-26T06:22:26.481Z,22.55
2023-04-26T06:23:26.505Z,22.56
2023-04-26T06:24:26.457Z,22.57
2023-04-26T06:25:26.473Z,22.58
2023-04-26T06:26:26.447Z,22.62
2023-04-26T06:27:26.448Z,22.65
2023-04-26T06:28:26.429Z,22.68
2023-04-26T06:29:26.421Z,22.72
2023-04-26T06:30:26.413Z,22.71
2023-04-26T06:31:26.427Z,22.74
2023-04-26T06:32:26.417Z,22.76
2023-04-26T06:33:26.366Z,22.76
2023-04-26T06:34:26.369Z,22.81
2023-04-26T06:35:26.440Z,22.84
2023-04-26T06:36:26.456Z,22.88
2023-04-26T06:37:26.473Z,22.94
2023-04-26T06:38:26.461Z,22.97
2023-04-26T06:39:26.448Z,22.96
2023-04-26T06:40:26.453Z,22.73
2023-04-26T06:41:26.442Z,22.66
2023-04-26T06:42:27.026Z,22.65
2023-04-26T06:43:26.455Z,22.66
2023-04-26T06:44:26.472Z,22.66
2023-04-26T06:45:26.467Z,22.67
2023-04-26T06:46:26.457Z,22.66
2023-04-26T06:47:26.481Z,22.67
2023-04-26T06:48:26.453Z,22.67
2023-04-26T06:49:26.447Z,22.67
2023-04-26T06:50:26.571Z,22.67
2023-04-26T06:51:26.577Z,22.68
2023-04-26T06:52:26.563Z,22.67
2023-04-26T06:53:26.594Z,22.67
2023-04-26T06:54:26.637Z,22.67
2023-04-26T06:55:26.699Z,22.68
2023-04-26T06:56:26.719Z,22.67
2023-04-26T06:57:26.765Z,22.68
2023-04-26T06:58:26.816Z,22.67
2023-04-26T06:59:27.089Z,22.66
2023-04-26T07:00:26.901Z,22.66
2023-04-26T07:01:26.960Z,22.67
2023-04-26T07:02:27.113Z,22.66
2023-04-26T07:03:27.208Z,22.67
2023-04-26T07:04:27.366Z,22.67
2023-04-26T07:05:27.130Z,22.66
2023-04-26T07:06:27.190Z,22.66
2023-04-26T07:07:27.236Z,22.65
2023-04-26T07:08:27.279Z,22.65
2023-04-26T07:09:27.318Z,22.63
2023-04-26T07:10:28.106Z,22.61
2023-04-26T07:11:27.282Z,22.59
2023-04-26T07:12:27.514Z,22.61
2023-04-26T07:13:27.280Z,22.63
2023-04-26T07:14:27.256Z,22.66
2023-04-26T07:15:27.290Z,22.68
2023-04-26T07:16:27.457Z,22.72
2023-04-26T07:17:27.235Z,22.75
2023-04-26T07:18:27.214Z,22.78
2023-04-26T07:19:27.191Z,22.80
2023-04-26T07:20:27.226Z,22.76
2023-04-26T07:21:27.268Z,22.51
2023-04-26T07:22:27.329Z,22.48
2023-04-26T07:23:27.429Z,22.49
2023-04-26T07:24:27.425Z,22.51
2023-04-26T07:25:28.113Z,22.53
2023-04-26T07:26:27.524Z,22.54
2023-04-26T07:27:27.574Z,22.56
2023-04-26T07:28:27.821Z,22.57
2023-04-26T07:29:27.678Z,22.59
2023-04-26T07:30:27.756Z,22.61
2023-04-26T07:31:27.775Z,22.62
2023-04-26T07:32:28.675Z,22.61
2023-04-26T07:33:27.942Z,22.60
2023-04-26T07:34:27.934Z,22.60
2023-04-26T07:35:27.992Z,22.61
2023-04-26T07:36:28.049Z,22.61
2023-04-26T07:37:28.083Z,22.61
2023-04-26T07:38:28.132Z,22.62
2023-04-26T07:39:28.214Z,22.63
2023-04-26T07:40:28.221Z,22.64
2023-04-26T07:41:28.270Z,22.64
2023-04-26T07:42:28.305Z,22.64
2023-04-26T07:43:28.354Z,22.64
2023-04-26T07:44:28.402Z,22.64
2023-04-26T07:45:28.544Z,22.64
2023-04-26T07:46:28.498Z,22.64
2023-04-26T07:47:28.571Z,22.63
2023-04-26T07:48:28.588Z,22.63
2023-04-26T07:49:28.635Z,22.62
2023-04-26T07:50:28.690Z,22.61
2023-04-26T07:51:28.741Z,22.61
2023-04-26T07:52:28.783Z,22.61
2023-04-26T07:53:28.840Z,22.62
2023-04-26T07:54:28.909Z,22.61
2023-04-26T07:55:28.937Z,22.62
2023-04-26T07:56:28.990Z,22.62
2023-04-26T07:57:28.987Z,22.61
2023-04-26T07:58:28.983Z,22.62
2023-04-26T07:59:28.965Z,22.62
2023-04-26T08:00:28.965Z,22.62
2023-04-26T08:01:28.942Z,22.61
2023-04-26T08:02:43.521Z,22.61
2023-04-26T08:03:30.208Z,22.61
2023-04-26T08:04:29.013Z,22.60
2023-04-26T08:05:29.121Z,22.59
2023-04-26T08:06:28.924Z,22.58
2023-04-26T08:07:28.912Z,22.56
2023-04-26T08:08:28.903Z,22.57
2023-04-26T08:09:28.885Z,22.55
2023-04-26T08:10:28.891Z,22.54
2023-04-26T08:11:30.701Z,22.54
2023-04-26T08:12:28.863Z,22.54
2023-04-26T08:13:29.629Z,22.52
2023-04-26T08:14:28.866Z,22.51
2023-04-26T08:15:28.886Z,22.48
2023-04-26T08:16:28.836Z,22.47
2023-04-26T08:17:29.108Z,22.50
2023-04-26T08:18:28.817Z,22.50
2023-04-26T08:19:29.810Z,22.50
2023-04-26T08:20:28.806Z,22.49
2023-04-26T08:21:28.788Z,22.45
2023-04-26T08:22:29.593Z,22.43
2023-04-26T08:23:28.795Z,22.45
2023-04-26T08:24:29.146Z,22.40
2023-04-26T08:25:28.779Z,22.37
2023-04-26T08:26:28.765Z,22.30
2023-04-26T08:27:28.750Z,22.30
2023-04-26T08:28:28.804Z,22.34
2023-04-26T08:29:28.865Z,22.41
2023-04-26T08:30:29.595Z,22.50
2023-04-26T08:31:29.047Z,22.54
2023-04-26T08:32:29.063Z,22.62
2023-04-26T08:33:29.069Z,22.70
2023-04-26T08:34:29.096Z,22.77
2023-04-26T08:35:29.136Z,22.80
2023-04-26T08:36:29.154Z,22.85
2023-04-26T08:37:29.603Z,22.88
2023-04-26T08:38:29.216Z,22.95
2023-04-26T08:39:29.265Z,23.06
2023-04-26T08:40:29.287Z,23.15
2023-04-26T08:41:30.143Z,23.22
2023-04-26T08:42:29.342Z,23.29
2023-04-26T08:43:29.624Z,23.34
2023-04-26T08:44:29.377Z,23.41
2023-04-26T08:45:29.385Z,23.46
2023-04-26T08:46:30.290Z,23.51
2023-04-26T08:47:29.450Z,23.59
2023-04-26T08:48:29.421Z,23.70
2023-04-26T08:49:29.408Z,23.73
2023-04-26T08:50:29.418Z,23.75
2023-04-26T08:51:29.410Z,23.74
2023-04-26T08:52:29.410Z,23.74
2023-04-26T08:53:29.496Z,23.71
2023-04-26T08:54:29.420Z,23.69
2023-04-26T08:55:30.398Z,23.75
2023-04-26T08:56:29.383Z,23.78
2023-04-26T08:57:29.363Z,23.82
2023-04-26T08:58:29.350Z,23.85
2023-04-26T08:59:29.339Z,23.89
2023-04-26T09:00:29.359Z,23.91
2023-04-26T09:01:29.325Z,23.93
2023-04-26T09:02:29.388Z,23.96
2023-04-26T09:03:30.182Z,23.97
2023-04-26T09:04:29.425Z,23.98
2023-04-26T09:05:29.241Z,24.01
2023-04-26T09:06:29.212Z,24.02
2023-04-26T09:07:29.195Z,24.04
2023-04-26T09:08:29.165Z,24.06
2023-04-26T09:09:29.723Z,24.08
2023-04-26T09:10:30.133Z,24.10
2023-04-26T09:11:29.102Z,24.10
2023-04-26T09:12:29.082Z,24.13
2023-04-26T09:13:29.068Z,24.14
2023-04-26T09:14:29.040Z,24.15
2023-04-26T09:15:29.111Z,24.17
2023-04-26T09:16:29.075Z,24.14
2023-04-26T09:17:29.062Z,24.14
2023-04-26T09:18:28.969Z,24.14
2023-04-26T09:19:28.948Z,24.12
2023-04-26T09:20:28.934Z,24.07
2023-04-26T09:21:28.913Z,24.05
2023-04-26T09:22:28.891Z,24.03
2023-04-26T09:23:28.871Z,24.02
2023-04-26T09:24:28.850Z,24.02
2023-04-26T09:25:28.823Z,24.02
2023-04-26T09:26:28.795Z,24.03
2023-04-26T09:27:28.760Z,24.05
2023-04-26T09:28:28.742Z,24.06
2023-04-26T09:29:28.715Z,24.07
2023-04-26T09:30:28.710Z,24.09
2023-04-26T09:31:28.787Z,24.07
2023-04-26T09:32:28.627Z,24.08
2023-04-26T09:33:28.682Z,24.08
2023-04-26T09:34:28.585Z,24.07
2023-04-26T09:35:28.565Z,24.08
2023-04-26T09:36:28.551Z,24.08
2023-04-26T09:37:28.545Z,24.08
2023-04-26T09:38:28.529Z,24.08
2023-04-26T09:39:28.524Z,24.08
2023-04-26T09:40:28.529Z,24.07
2023-04-26T09:41:28.492Z,24.07
2023-04-26T09:42:28.461Z,24.09
2023-04-26T09:43:28.467Z,24.09
2023-04-26T09:44:28.416Z,24.10
2023-04-26T09:45:28.386Z,24.11
2023-04-26T09:46:28.457Z,24.13
2023-04-26T09:47:28.374Z,24.16
2023-04-26T09:48:28.320Z,24.17
2023-04-26T09:49:28.308Z,24.19
2023-04-26T09:50:28.274Z,24.21
2023-04-26T09:51:28.246Z,24.23
2023-04-26T09:52:28.229Z,24.25
2023-04-26T09:53:28.199Z,24.27
2023-04-26T09:54:28.167Z,24.29
2023-04-26T09:55:34.651Z,24.31
2023-04-26T09:56:29.120Z,24.31
2023-04-26T09:57:28.083Z,24.32
2023-04-26T09:58:28.053Z,24.33
2023-04-26T09:59:28.028Z,24.32
2023-04-26T10:00:28.665Z,24.32
2023-04-26T10:01:28.152Z,24.31
2023-04-26T10:02:28.126Z,24.34
2023-04-26T10:03:28.064Z,24.33
2023-04-26T10:04:27.928Z,24.34
2023-04-26T10:05:27.879Z,24.34
2023-04-26T10:06:27.867Z,24.34
2023-04-26T10:07:27.829Z,24.35
2023-04-26T10:08:27.824Z,24.36
2023-04-26T10:09:27.836Z,24.37
2023-04-26T10:10:27.798Z,24.31
2023-04-26T10:11:27.795Z,24.27
2023-04-26T10:12:27.785Z,24.27
2023-04-26T10:13:27.765Z,24.25
2023-04-26T10:14:27.762Z,24.24
2023-04-26T10:15:27.739Z,24.24
2023-04-26T10:16:27.729Z,24.24
2023-04-26T10:17:27.744Z,24.23
2023-04-26T10:18:27.691Z,24.22
2023-04-26T10:19:27.676Z,24.21
2023-04-26T10:20:27.649Z,24.20
2023-04-26T10:21:27.633Z,24.19
2023-04-26T10:22:27.615Z,24.19
2023-04-26T10:23:27.596Z,24.18
2023-04-26T10:24:27.590Z,24.18
2023-04-26T10:25:27.582Z,24.16
2023-04-26T10:26:27.574Z,24.15
2023-04-26T10:27:27.572Z,24.14
2023-04-26T10:28:27.536Z,24.13
2023-04-26T10:29:27.510Z,24.12
2023-04-26T10:30:27.492Z,24.11
2023-04-26T10:31:27.483Z,24.11
2023-04-26T10:32:27.462Z,24.09
2023-04-26T10:33:27.441Z,24.09
2023-04-26T10:34:27.427Z,24.08
2023-04-26T10:35:27.428Z,24.08
2023-04-26T10:36:27.401Z,24.07
2023-04-26T10:37:27.385Z,24.06
2023-04-26T10:38:27.367Z,24.05
2023-04-26T10:39:27.361Z,24.04
2023-04-26T10:40:27.360Z,24.04
2023-04-26T10:41:27.338Z,24.02
2023-04-26T10:42:27.685Z,24.02
2023-04-26T10:43:27.307Z,24.01
2023-04-26T10:44:27.291Z,24.01
2023-04-26T10:45:27.287Z,24.00
2023-04-26T10:46:27.296Z,23.99
2023-04-26T10:47:27.309Z,23.99
2023-04-26T10:48:27.263Z,23.98
2023-04-26T10:49:27.246Z,23.97
2023-04-26T10:50:27.247Z,23.96
2023-04-26T10:51:27.297Z,23.95
2023-04-26T10:52:27.279Z,23.95
2023-04-26T10:53:27.225Z,23.94
2023-04-26T10:54:27.229Z,23.94
2023-04-26T10:55:27.217Z,23.93
2023-04-26T10:56:27.217Z,23.93
2023-04-26T10:57:27.216Z,23.92
2023-04-26T10:58:27.206Z,23.92
2023-04-26T11:00:29.168Z,23.90
2023-04-26T11:01:27.190Z,23.87
2023-04-26T11:02:27.204Z,23.87
2023-04-26T11:03:27.217Z,23.87
2023-04-26T11:04:27.226Z,23.87
2023-04-26T11:05:27.086Z,23.86
2023-04-26T11:06:27.134Z,23.85
2023-04-26T11:07:27.156Z,23.84
2023-04-26T11:08:27.018Z,23.83
2023-04-26T11:09:27.001Z,23.82
2023-04-26T11:10:26.991Z,23.81
2023-04-26T11:11:27.032Z,23.78
2023-04-26T11:12:26.952Z,23.74
2023-04-26T11:13:26.928Z,23.71
2023-04-26T11:14:26.945Z,23.68
2023-04-26T11:15:26.921Z,23.64
2023-04-26T11:16:26.974Z,23.62
2023-04-26T11:17:26.878Z,23.61
2023-04-26T11:18:26.833Z,23.60
2023-04-26T11:19:26.808Z,23.59
2023-04-26T11:20:26.796Z,23.58
2023-04-26T11:21:26.786Z,23.57
2023-04-26T11:22:26.767Z,23.56
2023-04-26T11:23:26.741Z,23.55
2023-04-26T11:24:26.737Z,23.54
2023-04-26T11:25:26.721Z,23.53
2023-04-26T11:26:26.690Z,23.53
2023-04-26T11:27:26.678Z,23.52
2023-04-26T11:28:26.654Z,23.52
2023-04-26T11:29:26.638Z,23.51
2023-04-26T11:30:26.671Z,23.51
2023-04-26T11:31:26.650Z,23.50
2023-04-26T11:32:26.602Z,23.49
2023-04-26T11:33:26.567Z,23.49
2023-04-26T11:34:26.560Z,23.49
2023-04-26T11:35:26.525Z,23.48
2023-04-26T11:36:26.527Z,23.48
2023-04-26T11:37:26.540Z,23.47
2023-04-26T11:38:26.624Z,23.47
2023-04-26T11:39:26.575Z,23.47
2023-04-26T11:40:26.603Z,23.45
2023-04-26T11:41:26.632Z,23.46
2023-04-26T11:42:26.639Z,23.45
2023-04-26T11:43:26.692Z,23.44
2023-04-26T11:44:26.684Z,23.44
2023-04-26T11:45:26.704Z,23.44
2023-04-26T11:46:26.757Z,23.44
2023-04-26T11:47:26.743Z,23.43
2023-04-26T11:48:26.906Z,23.42
2023-04-26T11:49:26.787Z,23.42
2023-04-26T11:50:26.846Z,23.42
2023-04-26T11:51:26.874Z,23.41
2023-04-26T11:52:26.848Z,23.42
2023-04-26T11:53:26.873Z,23.40
2023-04-26T11:54:26.890Z,23.41
2023-04-26T11:55:27.707Z,23.40
2023-04-26T11:56:26.937Z,23.40
2023-04-26T11:57:26.958Z,23.40
2023-04-26T11:58:26.970Z,23.39
2023-04-26T11:59:26.985Z,23.39
2023-04-26T12:00:27.012Z,23.38
2023-04-26T12:01:27.057Z,23.38
2023-04-26T12:02:27.168Z,23.38
2023-04-26T12:03:27.338Z,23.38
2023-04-26T12:04:29.801Z,23.38
2023-04-26T12:05:27.092Z,23.36
2023-04-26T12:06:27.060Z,23.37
2023-04-26T12:07:27.038Z,23.36
2023-04-26T12:08:27.034Z,23.36
2023-04-26T12:09:27.011Z,23.35
2023-04-26T12:10:26.984Z,23.34
2023-04-26T12:11:26.977Z,23.35
2023-04-26T12:12:26.962Z,23.34
2023-04-26T12:13:26.973Z,23.34
2023-04-26T12:14:26.932Z,23.33
2023-04-26T12:15:26.924Z,23.33
2023-04-26T12:16:27.403Z,23.34
2023-04-26T12:17:27.061Z,23.33
2023-04-26T12:18:26.994Z,23.33
2023-04-26T12:19:26.843Z,23.33
2023-04-26T12:20:26.826Z,23.32
2023-04-26T12:21:28.909Z,23.32
2023-04-26T12:22:26.807Z,23.32
2023-04-26T12:23:26.794Z,23.32
2023-04-26T12:24:26.802Z,23.32
2023-04-26T12:25:26.771Z,23.32
2023-04-26T12:26:26.819Z,23.31
2023-04-26T12:27:26.737Z,23.31
2023-04-26T12:28:26.720Z,23.31
2023-04-26T12:29:26.714Z,23.31
2023-04-26T12:30:26.705Z,23.31
2023-04-26T12:31:26.733Z,23.30
2023-04-26T12:32:26.665Z,23.31
2023-04-26T12:33:26.691Z,23.31
2023-04-26T12:34:26.652Z,23.30
2023-04-26T12:35:26.643Z,23.30
2023-04-26T12:36:26.643Z,23.30
2023-04-26T12:37:26.615Z,23.30
2023-04-26T12:38:26.633Z,23.30
2023-04-26T12:39:26.598Z,23.30
2023-04-26T12:40:26.565Z,23.29
2023-04-26T12:41:26.738Z,23.28
2023-04-26T12:42:26.545Z,23.29
2023-04-26T12:43:26.553Z,23.29
2023-04-26T12:44:26.511Z,23.28
2023-04-26T12:45:26.530Z,23.29
2023-04-26T12:46:26.569Z,23.27
2023-04-26T12:47:26.489Z,23.28
2023-04-26T12:48:26.440Z,23.28
2023-04-26T12:49:26.425Z,23.27
2023-04-26T12:50:26.424Z,23.28
2023-04-26T12:51:26.410Z,23.27
2023-04-26T12:52:26.397Z,23.27
2023-04-26T12:53:26.409Z,23.27
2023-04-26T12:54:26.371Z,23.26